Howes, South Dakota
Current Conditions -  °F | °C
As of 12:55 PM on Friday 31 Oct 2014 (Local Time) from KPHP Reporting Station
Clear Clear  
Wind Chill: 37°   Ceiling: Unl
Heat Index: 45°   Visibility: 10mi
Dew Point: 23°   Wind: 18mph
Humidity: 42%   Direction: 150°SSE
Pressure: 30.33"   Gusts: 24mph
Location:  44.62°N, 102.05°W
Report Text: KPHP 311855Z AUTO 15016G21KT 10SM CLR 07/M05 A3033 RMK AO2 SLP283 T00721050
Loading
Personal Weather Stations






























Interactive Weather Map
Tropical Storm Tracking
New forecast layout! Learn more

10-Day Weather Forecast

Advertisements
Track Severe Weather on mobile